createdAt,value
2022-09-04T00:07:17.598Z,63.32
2022-09-04T00:35:40.114Z,63.19
2022-09-04T01:03:53.754Z,63.19
2022-09-04T01:32:24.408Z,63.02
2022-09-04T02:00:49.580Z,62.78
2022-09-04T02:29:11.152Z,62.58
2022-09-04T02:57:52.573Z,62.49
2022-09-04T03:26:16.591Z,62.33
2022-09-04T03:54:55.709Z,62.12
2022-09-04T04:23:39.747Z,61.87
2022-09-04T04:52:27.723Z,61.72
2022-09-04T05:20:43.902Z,61.59
2022-09-04T05:49:20.874Z,61.61
2022-09-04T06:18:10.133Z,61.64
2022-09-04T06:46:27.288Z,61.71
2022-09-04T07:14:46.424Z,61.97
2022-09-04T07:43:07.355Z,62.07
2022-09-04T08:11:26.908Z,62.23
2022-09-04T08:39:43.888Z,62.23
2022-09-04T09:08:16.834Z,62.34
2022-09-04T09:36:57.933Z,62.24
2022-09-04T10:05:52.270Z,61.85
2022-09-04T10:34:11.432Z,60.45
2022-09-04T11:02:39.144Z,60.63
2022-09-04T11:31:22.095Z,60.93
2022-09-04T11:59:46.605Z,60.98
2022-09-04T12:28:28.734Z,61.34
2022-09-04T12:57:05.919Z,61.3
2022-09-04T13:25:07.754Z,60.88
2022-09-04T13:53:33.954Z,60.94
2022-09-04T14:22:07.240Z,61
2022-09-04T14:50:34.836Z,60.95
2022-09-04T15:18:58.982Z,60.64
2022-09-04T15:47:35.113Z,60.77
2022-09-04T16:31:14.576Z,60.32
2022-09-04T16:58:42.659Z,60.32
2022-09-04T17:29:06.417Z,60.72
2022-09-04T17:55:24.463Z,60.97
2022-09-04T18:24:40.859Z,61.27
2022-09-04T18:52:52.059Z,61.56
2022-09-04T19:21:17.616Z,61.71
2022-09-04T19:51:30.904Z,61.8
2022-09-04T20:18:11.237Z,61.82
2022-09-04T20:48:17.415Z,61.87
2022-09-04T21:15:00.481Z,61.81
2022-09-04T21:43:14.879Z,61.87
2022-09-04T22:13:36.948Z,61.96
2022-09-04T22:41:03.050Z,61.98
2022-09-04T23:12:28.571Z,61.64
2022-09-04T23:38:01.537Z,61.64
